Time;durP1;ratioP1;P1;durP2;ratioP2;P2;SDS_P1;SDS_P2;PMS_P1;PMS_P2;Temp;Humidity;BMP_temperature;BMP_pressure;BME280_temperature;BME280_humidity;BME280_pressure;Samples;Min_cycle;Max_cycle;Signal;HPM_P1;HPM_P2
2021/12/29 00:00:24;;;;;;;4.95;1.05;;;;;;;;;;5069515;28;20044;-73
2021/12/29 00:02:50;;;;;;;4.03;0.98;;;;;;;;;;5069086;28;20044;-73
2021/12/29 00:05:17;;;;;;;3.38;1.00;;;;;;;;;;5069473;28;20047;-73
2021/12/29 00:07:43;;;;;;;6.07;0.98;;;;;;;;;;5069231;28;20109;-74
2021/12/29 00:10:09;;;;;;;14.10;1.02;;;;;;;;;;5069546;28;20052;-74
2021/12/29 00:12:41;;;;;;;2.35;0.93;;;;;;;;;;5069575;28;20059;-73
2021/12/29 00:15:08;;;;;;;2.88;0.90;;;;;;;;;;5069765;28;20076;-73
2021/12/29 00:17:34;;;;;;;2.45;1.00;;;;;;;;;;5069191;28;20132;-73
2021/12/29 00:20:00;;;;;;;2.72;1.05;;;;;;;;;;5069012;28;20044;-74
2021/12/29 00:22:26;;;;;;;3.42;0.80;;;;;;;;;;5067944;28;20082;-74
2021/12/29 00:24:52;;;;;;;4.03;0.90;;;;;;;;;;5067467;28;20049;-73
2021/12/29 00:27:18;;;;;;;3.88;1.35;;;;;;;;;;5069223;28;20048;-73
2021/12/29 00:29:44;;;;;;;2.40;0.90;;;;;;;;;;5069076;28;20070;-73
2021/12/29 00:32:10;;;;;;;2.20;1.02;;;;;;;;;;5069430;28;20047;-73
2021/12/29 00:35:08;;;;;;;1.85;0.80;;;;;;;;;;5068431;28;20135;-73
2021/12/29 00:37:34;;;;;;;3.88;0.95;;;;;;;;;;5068996;28;20040;-73
2021/12/29 00:40:00;;;;;;;2.53;0.90;;;;;;;;;;5069151;28;20094;-73
2021/12/29 00:42:26;;;;;;;2.88;0.98;;;;;;;;;;5069193;28;20049;-73
2021/12/29 00:44:53;;;;;;;2.45;0.73;;;;;;;;;;5068982;28;20044;-74
2021/12/29 00:47:19;;;;;;;1.20;0.60;;;;;;;;;;5068681;28;20131;-73
2021/12/29 00:49:46;;;;;;;3.00;0.70;;;;;;;;;;5068966;28;20433;-74
2021/12/29 00:52:13;;;;;;;1.73;0.70;;;;;;;;;;5068690;28;20094;-73
2021/12/29 00:54:40;;;;;;;2.33;0.70;;;;;;;;;;5068949;28;20098;-73
2021/12/29 00:57:06;;;;;;;1.88;0.77;;;;;;;;;;5068561;28;20083;-73
2021/12/29 00:59:32;;;;;;;1.48;0.57;;;;;;;;;;5068931;28;20048;-73
2021/12/29 01:01:58;;;;;;;2.58;0.80;;;;;;;;;;5069254;28;20473;-73
2021/12/29 01:04:25;;;;;;;2.13;0.85;;;;;;;;;;5069157;28;20084;-74
2021/12/29 01:06:52;;;;;;;2.13;0.60;;;;;;;;;;5072430;28;20048;-74
2021/12/29 01:09:18;;;;;;;3.70;0.80;;;;;;;;;;5072427;28;20127;-73
2021/12/29 01:11:44;;;;;;;2.72;0.98;;;;;;;;;;5072613;28;20088;-73
2021/12/29 01:14:10;;;;;;;2.25;0.98;;;;;;;;;;5072945;28;20044;-73
2021/12/29 01:16:37;;;;;;;2.35;1.00;;;;;;;;;;5072901;28;20102;-73
2021/12/29 01:19:14;;;;;;;3.70;0.90;;;;;;;;;;5072244;28;20123;-73
2021/12/29 01:21:41;;;;;;;3.33;1.00;;;;;;;;;;5072984;28;20465;-74
2021/12/29 01:24:08;;;;;;;4.10;0.80;;;;;;;;;;5072669;28;20036;-74
2021/12/29 01:26:34;;;;;;;2.70;0.68;;;;;;;;;;5071931;28;20452;-73
2021/12/29 01:29:00;;;;;;;2.30;0.90;;;;;;;;;;5072470;28;20044;-73
2021/12/29 01:31:26;;;;;;;3.60;0.80;;;;;;;;;;5072445;28;20094;-73
2021/12/29 01:33:53;;;;;;;2.80;1.08;;;;;;;;;;5072411;28;20074;-73
2021/12/29 01:36:19;;;;;;;6.68;0.80;;;;;;;;;;5072337;28;20044;-74
2021/12/29 01:38:45;;;;;;;2.00;0.98;;;;;;;;;;5071781;28;20051;-73
2021/12/29 01:41:11;;;;;;;5.13;0.90;;;;;;;;;;5072310;28;20556;-74
2021/12/29 01:43:37;;;;;;;2.63;0.70;;;;;;;;;;5071846;28;20131;-74
2021/12/29 01:46:03;;;;;;;1.95;0.98;;;;;;;;;;5072041;28;20078;-74
2021/12/29 01:48:29;;;;;;;1.20;0.70;;;;;;;;;;5071673;28;20094;-74
2021/12/29 01:50:56;;;;;;;2.47;0.88;;;;;;;;;;5072005;28;20076;-74
2021/12/29 01:53:25;;;;;;;2.08;0.70;;;;;;;;;;5072372;28;20551;-73
2021/12/29 01:55:52;;;;;;;1.92;0.77;;;;;;;;;;5071882;28;20102;-73
2021/12/29 01:58:20;;;;;;;2.00;0.65;;;;;;;;;;5071680;28;20051;-73
2021/12/29 02:00:46;;;;;;;1.88;0.80;;;;;;;;;;5071211;28;20048;-73
2021/12/29 02:03:12;;;;;;;1.77;0.90;;;;;;;;;;5071983;28;20131;-72
2021/12/29 02:05:39;;;;;;;2.13;0.80;;;;;;;;;;5071760;28;20048;-72
2021/12/29 02:08:05;;;;;;;2.08;0.70;;;;;;;;;;5070500;28;20045;-72
2021/12/29 02:10:36;;;;;;;1.63;0.70;;;;;;;;;;5071397;28;20047;-73
2021/12/29 02:13:02;;;;;;;2.33;0.68;;;;;;;;;;5070316;28;20511;-75
2021/12/29 02:15:28;;;;;;;1.30;0.65;;;;;;;;;;5071647;28;20094;-74
2021/12/29 02:17:54;;;;;;;2.47;0.70;;;;;;;;;;5071387;28;20048;-75
2021/12/29 02:20:21;;;;;;;1.75;0.80;;;;;;;;;;5071207;28;20574;-75
2021/12/29 02:22:59;;;;;;;1.77;0.93;;;;;;;;;;5071509;28;20044;-74
2021/12/29 02:25:46;;;;;;;1.70;0.75;;;;;;;;;;5071167;28;20059;-75
2021/12/29 02:28:11;;;;;;;0.90;0.55;;;;;;;;;;5071180;28;20048;-75
2021/12/29 02:30:37;;;;;;;2.70;0.80;;;;;;;;;;5071282;28;20498;-75
2021/12/29 02:33:05;;;;;;;2.05;0.75;;;;;;;;;;5070547;28;20363;-75
2021/12/29 02:35:31;;;;;;;1.92;0.80;;;;;;;;;;5071347;28;20498;-75
2021/12/29 02:37:59;;;;;;;1.65;0.80;;;;;;;;;;5071277;28;20063;-74
2021/12/29 02:40:25;;;;;;;2.47;0.60;;;;;;;;;;5071105;28;20049;-74
2021/12/29 02:42:51;;;;;;;1.90;0.90;;;;;;;;;;5071342;28;20064;-74
2021/12/29 02:45:21;;;;;;;1.88;0.75;;;;;;;;;;5070686;28;20056;-73
2021/12/29 02:47:48;;;;;;;1.83;0.77;;;;;;;;;;5070728;28;20475;-72
2021/12/29 02:50:15;;;;;;;7.95;0.90;;;;;;;;;;5071001;28;20131;-72
2021/12/29 02:52:41;;;;;;;3.13;0.65;;;;;;;;;;5070397;28;20576;-72
2021/12/29 02:55:08;;;;;;;1.95;0.73;;;;;;;;;;5069700;28;20057;-72
2021/12/29 02:57:34;;;;;;;2.80;1.05;;;;;;;;;;5070928;28;20105;-72
2021/12/29 03:00:00;;;;;;;1.20;0.50;;;;;;;;;;5070998;28;20478;-73
2021/12/29 03:02:26;;;;;;;2.47;0.77;;;;;;;;;;5069503;28;20045;-73
2021/12/29 03:04:53;;;;;;;3.28;0.88;;;;;;;;;;5070111;28;20045;-72
2021/12/29 03:07:19;;;;;;;13.18;1.20;;;;;;;;;;5070534;28;20098;-73
2021/12/29 03:09:45;;;;;;;3.90;0.70;;;;;;;;;;5070601;28;20044;-73
2021/12/29 03:12:11;;;;;;;2.40;0.77;;;;;;;;;;5070829;28;20425;-73
2021/12/29 03:14:37;;;;;;;3.60;0.70;;;;;;;;;;5070687;28;20087;-72
2021/12/29 03:17:03;;;;;;;2.15;0.68;;;;;;;;;;5070163;28;20055;-73
2021/12/29 03:19:29;;;;;;;2.60;0.70;;;;;;;;;;5070552;28;20099;-73
2021/12/29 03:21:55;;;;;;;4.68;0.77;;;;;;;;;;5070396;28;20048;-73
2021/12/29 03:24:21;;;;;;;3.90;0.90;;;;;;;;;;5070245;28;20051;-73
2021/12/29 03:26:47;;;;;;;3.78;0.60;;;;;;;;;;5052348;28;20044;-73
2021/12/29 03:29:13;;;;;;;1.30;0.57;;;;;;;;;;5068442;28;20045;-73
2021/12/29 03:31:42;;;;;;;2.85;0.70;;;;;;;;;;5068851;28;20117;-73
2021/12/29 03:34:08;;;;;;;2.20;0.60;;;;;;;;;;5070258;28;20052;-73
2021/12/29 03:36:34;;;;;;;0.90;0.50;;;;;;;;;;5070109;28;20414;-73
2021/12/29 03:39:00;;;;;;;1.60;0.68;;;;;;;;;;5070025;28;20074;-72
2021/12/29 03:41:26;;;;;;;0.90;0.50;;;;;;;;;;5069822;28;20044;-72
2021/12/29 03:43:52;;;;;;;0.82;0.50;;;;;;;;;;5069871;28;20055;-72
2021/12/29 03:46:19;;;;;;;3.70;0.70;;;;;;;;;;5070273;28;20041;-74
2021/12/29 03:48:46;;;;;;;1.60;0.85;;;;;;;;;;5068098;28;20145;-74
2021/12/29 03:51:12;;;;;;;3.75;0.40;;;;;;;;;;5068870;28;20197;-74
2021/12/29 03:53:38;;;;;;;2.90;0.80;;;;;;;;;;5069744;28;20048;-74
2021/12/29 03:56:05;;;;;;;2.65;0.80;;;;;;;;;;5069259;28;20051;-73
2021/12/29 03:58:31;;;;;;;1.48;0.70;;;;;;;;;;5069929;28;20510;-73
2021/12/29 04:00:59;;;;;;;1.05;0.55;;;;;;;;;;5069855;28;20418;-73
2021/12/29 04:03:25;;;;;;;1.95;0.70;;;;;;;;;;5070016;28;20044;-73
2021/12/29 04:05:51;;;;;;;1.73;0.68;;;;;;;;;;5069383;28;20470;-74
2021/12/29 04:08:17;;;;;;;1.30;0.55;;;;;;;;;;5051746;28;20048;-74
2021/12/29 04:10:43;;;;;;;1.30;0.80;;;;;;;;;;5069539;28;20479;-74
2021/12/29 04:13:09;;;;;;;1.13;0.52;;;;;;;;;;5069355;28;20044;-74
2021/12/29 04:15:37;;;;;;;2.15;0.88;;;;;;;;;;5069264;28;20103;-74
2021/12/29 04:18:14;;;;;;;1.02;0.50;;;;;;;;;;5069316;28;20131;-74
2021/12/29 04:20:57;;;;;;;1.58;0.70;;;;;;;;;;5069225;28;20102;-74
2021/12/29 04:23:24;;;;;;;1.38;0.65;;;;;;;;;;5068261;28;20080;-74
2021/12/29 04:25:53;;;;;;;0.65;0.30;;;;;;;;;;5067974;28;20516;-75
2021/12/29 04:28:20;;;;;;;2.30;0.65;;;;;;;;;;5068714;28;20048;-74
2021/12/29 04:30:50;;;;;;;1.10;0.40;;;;;;;;;;5068026;28;20131;-74
2021/12/29 04:33:17;;;;;;;2.72;0.60;;;;;;;;;;5067820;28;20054;-74
2021/12/29 04:35:44;;;;;;;0.88;0.40;;;;;;;;;;5069402;28;20477;-74
2021/12/29 04:38:10;;;;;;;1.75;0.93;;;;;;;;;;5069250;28;20097;-72
2021/12/29 04:40:36;;;;;;;1.95;0.60;;;;;;;;;;5067823;28;20076;-74
2021/12/29 04:43:02;;;;;;;1.58;0.63;;;;;;;;;;5067792;28;20338;-75
2021/12/29 04:45:28;;;;;;;1.20;0.80;;;;;;;;;;5068875;28;20576;-74
2021/12/29 04:47:54;;;;;;;0.60;0.45;;;;;;;;;;5068968;28;20526;-74
2021/12/29 04:50:26;;;;;;;0.70;0.43;;;;;;;;;;5067801;28;20049;-74
2021/12/29 04:52:54;;;;;;;1.45;0.63;;;;;;;;;;5069170;28;20491;-74
2021/12/29 04:55:20;;;;;;;1.20;0.63;;;;;;;;;;5069638;28;20150;-74
2021/12/29 04:57:47;;;;;;;2.45;0.60;;;;;;;;;;5068708;28;20467;-74
2021/12/29 05:00:13;;;;;;;1.40;0.80;;;;;;;;;;5069344;28;20083;-74
2021/12/29 05:02:39;;;;;;;1.58;0.60;;;;;;;;;;5068403;28;20040;-74
2021/12/29 05:05:19;;;;;;;1.95;1.20;;;;;;;;;;5068958;28;20590;-74
2021/12/29 05:10:30;;;;;;;0.73;0.43;;;;;;;;;;5068608;28;20053;-73
2021/12/29 05:12:56;;;;;;;2.08;0.80;;;;;;;;;;5068623;28;20602;-73
2021/12/29 05:15:22;;;;;;;1.17;0.55;;;;;;;;;;5068604;28;20052;-73
2021/12/29 05:17:48;;;;;;;0.90;0.50;;;;;;;;;;5068688;28;20055;-74
2021/12/29 05:20:14;;;;;;;2.58;0.52;;;;;;;;;;5068494;28;20118;-75
2021/12/29 05:22:40;;;;;;;2.10;0.60;;;;;;;;;;5050690;28;20051;-73
2021/12/29 05:25:06;;;;;;;1.88;0.80;;;;;;;;;;5069049;28;20098;-74
2021/12/29 05:27:32;;;;;;;3.92;0.70;;;;;;;;;;5068729;28;20094;-74
2021/12/29 05:30:03;;;;;;;2.47;0.80;;;;;;;;;;5068261;28;20044;-73
2021/12/29 05:32:30;;;;;;;2.45;0.60;;;;;;;;;;5068777;28;20418;-72
2021/12/29 05:34:56;;;;;;;1.15;0.60;;;;;;;;;;5068478;28;20045;-72
2021/12/29 05:37:23;;;;;;;1.00;0.40;;;;;;;;;;5068486;28;20042;-72
2021/12/29 05:39:49;;;;;;;1.70;0.40;;;;;;;;;;5068217;28;20414;-72
2021/12/29 05:42:15;;;;;;;2.63;0.68;;;;;;;;;;5067885;28;20521;-72
2021/12/29 05:44:41;;;;;;;0.70;0.40;;;;;;;;;;5068326;28;20049;-73
2021/12/29 05:47:07;;;;;;;2.55;0.70;;;;;;;;;;5068478;28;20052;-73
2021/12/29 05:49:33;;;;;;;2.00;0.70;;;;;;;;;;5068046;28;20040;-73
2021/12/29 05:51:59;;;;;;;3.03;0.70;;;;;;;;;;5070287;28;20075;-74
2021/12/29 05:54:27;;;;;;;7.47;1.58;;;;;;;;;;5071326;28;20044;-73
2021/12/29 05:56:53;;;;;;;1.00;0.57;;;;;;;;;;5072610;28;20044;-73
2021/12/29 05:59:19;;;;;;;3.65;0.70;;;;;;;;;;5072221;28;20127;-73
2021/12/29 06:01:45;;;;;;;1.40;0.50;;;;;;;;;;5071161;28;20048;-73
2021/12/29 06:04:11;;;;;;;2.55;0.70;;;;;;;;;;5072027;28;20036;-72
2021/12/29 06:06:37;;;;;;;2.03;0.55;;;;;;;;;;5070686;28;20052;-73
2021/12/29 06:09:04;;;;;;;2.65;0.50;;;;;;;;;;5072014;28;20051;-73
2021/12/29 06:11:30;;;;;;;2.42;0.60;;;;;;;;;;5071884;28;20053;-72
2021/12/29 06:13:56;;;;;;;1.70;0.45;;;;;;;;;;5071381;28;20060;-73
2021/12/29 06:16:22;;;;;;;2.88;0.60;;;;;;;;;;5070779;28;20056;-73
2021/12/29 06:18:48;;;;;;;0.82;0.50;;;;;;;;;;5071598;28;20093;-73
2021/12/29 06:21:16;;;;;;;1.10;0.45;;;;;;;;;;5071813;28;20055;-73
2021/12/29 06:23:46;;;;;;;1.40;0.70;;;;;;;;;;5070244;28;20048;-73
2021/12/29 06:26:12;;;;;;;2.13;0.40;;;;;;;;;;5071101;28;20076;-72
2021/12/29 06:28:39;;;;;;;1.50;0.47;;;;;;;;;;5070264;28;20084;-73
2021/12/29 06:31:05;;;;;;;3.42;0.50;;;;;;;;;;5071667;28;20040;-73
2021/12/29 06:33:31;;;;;;;1.45;0.50;;;;;;;;;;5071335;28;20044;-73
2021/12/29 06:35:57;;;;;;;1.88;0.70;;;;;;;;;;5070801;28;20059;-73
2021/12/29 06:38:23;;;;;;;2.20;1.10;;;;;;;;;;5071411;28;20048;-73
2021/12/29 06:40:49;;;;;;;1.52;0.52;;;;;;;;;;5070896;28;20045;-74
2021/12/29 06:43:15;;;;;;;0.95;0.40;;;;;;;;;;5071007;28;20127;-73
2021/12/29 06:45:41;;;;;;;1.55;0.50;;;;;;;;;;5071487;28;20056;-73
2021/12/29 06:48:07;;;;;;;2.20;0.45;;;;;;;;;;5070843;28;20044;-73
2021/12/29 06:50:34;;;;;;;1.48;0.35;;;;;;;;;;5071085;28;20156;-73
2021/12/29 06:53:00;;;;;;;1.20;0.43;;;;;;;;;;5071330;28;20055;-73
2021/12/29 06:55:26;;;;;;;1.77;0.40;;;;;;;;;;5070813;28;20105;-73
2021/12/29 06:57:52;;;;;;;0.70;0.50;;;;;;;;;;5070893;28;20089;-74
2021/12/29 07:00:19;;;;;;;1.08;0.60;;;;;;;;;;5070547;28;20091;-74
2021/12/29 07:02:45;;;;;;;1.15;0.40;;;;;;;;;;5068903;28;20091;-75
2021/12/29 07:05:11;;;;;;;1.83;0.50;;;;;;;;;;5071094;28;20133;-72
2021/12/29 07:07:37;;;;;;;0.80;0.47;;;;;;;;;;5070144;28;20525;-74
2021/12/29 07:10:04;;;;;;;1.27;0.40;;;;;;;;;;5070005;28;20048;-73
2021/12/29 07:12:30;;;;;;;0.95;0.50;;;;;;;;;;5070495;28;20493;-73
2021/12/29 07:14:56;;;;;;;1.88;0.30;;;;;;;;;;5070716;28;20048;-72
2021/12/29 07:17:22;;;;;;;2.08;0.60;;;;;;;;;;5070623;28;20093;-72
2021/12/29 07:19:48;;;;;;;0.90;0.40;;;;;;;;;;5070206;28;20137;-72
2021/12/29 07:22:14;;;;;;;0.77;0.50;;;;;;;;;;5070512;28;20051;-73
2021/12/29 07:24:40;;;;;;;4.90;0.50;;;;;;;;;;5070598;28;20113;-73
2021/12/29 07:27:06;;;;;;;2.60;0.80;;;;;;;;;;5070552;28;20410;-74
2021/12/29 07:29:33;;;;;;;2.10;0.63;;;;;;;;;;5070279;28;20477;-73
2021/12/29 07:32:01;;;;;;;3.67;0.63;;;;;;;;;;5070036;28;20050;-74
2021/12/29 07:34:28;;;;;;;1.23;0.50;;;;;;;;;;5069338;28;20056;-73
2021/12/29 07:36:54;;;;;;;1.55;0.43;;;;;;;;;;5070256;28;20053;-72
2021/12/29 07:39:20;;;;;;;2.08;0.60;;;;;;;;;;5070530;28;20049;-72
2021/12/29 07:41:46;;;;;;;1.83;0.50;;;;;;;;;;5069415;28;20484;-72
2021/12/29 07:44:14;;;;;;;1.27;0.40;;;;;;;;;;5070407;28;20044;-72
2021/12/29 07:46:42;;;;;;;2.75;0.50;;;;;;;;;;5070248;28;20056;-73
2021/12/29 07:49:08;;;;;;;2.45;0.65;;;;;;;;;;5069737;28;20044;-73
2021/12/29 07:51:34;;;;;;;6.20;0.95;;;;;;;;;;5068296;28;20063;-73
2021/12/29 07:54:00;;;;;;;3.17;0.93;;;;;;;;;;5069749;28;20449;-73
2021/12/29 07:56:26;;;;;;;5.10;0.82;;;;;;;;;;5069906;28;20049;-73
2021/12/29 07:58:52;;;;;;;4.43;0.73;;;;;;;;;;5070062;28;20056;-73
2021/12/29 08:01:18;;;;;;;4.70;0.80;;;;;;;;;;5069817;28;20048;-73
2021/12/29 08:03:44;;;;;;;1.63;0.40;;;;;;;;;;5069494;28;20086;-72
2021/12/29 08:06:10;;;;;;;2.30;0.60;;;;;;;;;;5069546;28;20514;-73
2021/12/29 08:08:36;;;;;;;0.75;0.45;;;;;;;;;;5068723;28;20044;-71
2021/12/29 08:11:03;;;;;;;1.65;0.40;;;;;;;;;;5069454;28;20102;-72
2021/12/29 08:13:29;;;;;;;2.70;0.43;;;;;;;;;;5069744;28;20410;-72
2021/12/29 08:15:55;;;;;;;2.90;0.95;;;;;;;;;;5067816;28;20052;-72
2021/12/29 08:18:21;;;;;;;3.13;1.00;;;;;;;;;;5067041;28;20567;-72
2021/12/29 08:20:47;;;;;;;3.30;0.75;;;;;;;;;;5050679;28;20503;-72
2021/12/29 08:23:13;;;;;;;2.92;0.43;;;;;;;;;;5069511;28;20044;-72
2021/12/29 08:25:39;;;;;;;1.25;0.60;;;;;;;;;;5068880;28;20055;-72
2021/12/29 08:28:05;;;;;;;1.08;0.40;;;;;;;;;;5069198;28;20387;-72
2021/12/29 08:30:32;;;;;;;2.38;0.60;;;;;;;;;;5068696;28;20041;-71
2021/12/29 08:32:58;;;;;;;3.03;0.60;;;;;;;;;;5068661;28;20041;-71
2021/12/29 08:35:24;;;;;;;3.47;0.60;;;;;;;;;;5069101;28;20043;-72
2021/12/29 08:37:50;;;;;;;1.50;0.43;;;;;;;;;;5068850;28;20055;-72
2021/12/29 08:40:17;;;;;;;4.15;0.82;;;;;;;;;;5068927;28;20041;-72
2021/12/29 08:42:43;;;;;;;3.35;0.73;;;;;;;;;;5068447;28;20418;-71
2021/12/29 08:45:10;;;;;;;2.17;0.50;;;;;;;;;;5068922;28;20053;-71
2021/12/29 08:47:37;;;;;;;3.47;0.70;;;;;;;;;;5068629;28;20047;-72
2021/12/29 08:50:04;;;;;;;2.15;0.70;;;;;;;;;;5068762;28;20181;-72
2021/12/29 08:52:30;;;;;;;1.92;0.70;;;;;;;;;;5068723;28;20048;-72
2021/12/29 08:54:56;;;;;;;2.75;0.75;;;;;;;;;;5068368;28;20055;-72
2021/12/29 08:57:22;;;;;;;3.17;0.88;;;;;;;;;;5068763;28;20075;-72
2021/12/29 08:59:48;;;;;;;4.53;0.70;;;;;;;;;;5067344;28;20059;-72
2021/12/29 09:02:14;;;;;;;4.45;0.70;;;;;;;;;;5067512;28;20051;-73
2021/12/29 09:04:41;;;;;;;6.35;0.77;;;;;;;;;;5068609;28;20044;-72
2021/12/29 09:07:07;;;;;;;3.92;0.70;;;;;;;;;;5067243;28;20055;-78
2021/12/29 09:09:33;;;;;;;2.85;0.80;;;;;;;;;;5066836;28;20044;-77
2021/12/29 09:11:59;;;;;;;2.15;0.63;;;;;;;;;;5068331;28;20064;-73
2021/12/29 09:14:25;;;;;;;3.25;0.90;;;;;;;;;;5068390;28;20414;-73
2021/12/29 09:16:51;;;;;;;1.45;0.77;;;;;;;;;;5067890;28;20572;-72
2021/12/29 09:19:17;;;;;;;4.28;0.98;;;;;;;;;;5066933;28;20094;-75
2021/12/29 09:21:44;;;;;;;2.40;0.73;;;;;;;;;;5067569;28;20040;-77
2021/12/29 09:24:13;;;;;;;3.05;0.95;;;;;;;;;;5066252;28;20567;-79
2021/12/29 09:26:39;;;;;;;3.20;0.80;;;;;;;;;;5069679;28;20040;-77
2021/12/29 09:29:06;;;;;;;4.90;1.05;;;;;;;;;;5072163;28;20494;-80
2021/12/29 09:31:32;;;;;;;3.58;1.15;;;;;;;;;;5071630;28;20049;-79
2021/12/29 09:33:58;;;;;;;2.30;0.90;;;;;;;;;;5071341;28;20052;-78
2021/12/29 09:36:24;;;;;;;9.60;1.48;;;;;;;;;;5071592;28;20040;-78
2021/12/29 09:38:50;;;;;;;3.70;1.15;;;;;;;;;;5071487;28;20040;-77
2021/12/29 09:41:17;;;;;;;3.47;1.13;;;;;;;;;;5071291;28;20056;-79
2021/12/29 09:43:45;;;;;;;10.40;1.40;;;;;;;;;;5072027;28;20044;-79
2021/12/29 09:46:11;;;;;;;6.78;1.48;;;;;;;;;;5072396;28;20391;-79
2021/12/29 09:48:37;;;;;;;8.77;1.65;;;;;;;;;;5071706;28;20040;-77
2021/12/29 09:51:04;;;;;;;14.45;2.33;;;;;;;;;;5071657;28;20510;-77
2021/12/29 09:53:30;;;;;;;8.77;1.73;;;;;;;;;;5055599;28;20044;-78
2021/12/29 09:55:56;;;;;;;8.50;1.50;;;;;;;;;;5072546;28;20056;-77
2021/12/29 09:58:23;;;;;;;5.72;2.20;;;;;;;;;;5091168;28;20105;-77
2021/12/29 10:00:51;;;;;;;5.72;1.50;;;;;;;;;;5090368;28;20036;-78
2021/12/29 10:03:19;;;;;;;5.53;1.60;;;;;;;;;;5090759;28;20056;-78
2021/12/29 10:05:45;;;;;;;5.57;1.75;;;;;;;;;;5091281;28;20522;-77
2021/12/29 10:08:16;;;;;;;4.85;1.85;;;;;;;;;;5090777;28;20532;-79
2021/12/29 10:10:45;;;;;;;5.88;1.63;;;;;;;;;;5090682;28;20113;-77
2021/12/29 10:13:11;;;;;;;4.68;1.40;;;;;;;;;;5091006;28;20414;-79
2021/12/29 10:15:43;;;;;;;4.28;1.58;;;;;;;;;;5090072;28;20490;-76
2021/12/29 10:18:11;;;;;;;5.47;1.85;;;;;;;;;;5090158;28;20489;-80
2021/12/29 10:20:49;;;;;;;7.38;1.90;;;;;;;;;;5088448;28;20093;-81
2021/12/29 10:23:18;;;;;;;5.75;2.00;;;;;;;;;;5088627;28;20418;-75
2021/12/29 10:25:44;;;;;;;4.93;1.75;;;;;;;;;;5088559;28;20490;-76
2021/12/29 10:28:22;;;;;;;5.40;1.92;;;;;;;;;;5088843;28;20048;-76
2021/12/29 10:30:54;;;;;;;7.80;2.33;;;;;;;;;;5088552;28;20044;-78
2021/12/29 10:33:20;;;;;;;5.45;1.92;;;;;;;;;;5089591;28;20040;-76
2021/12/29 10:35:46;;;;;;;8.18;1.77;;;;;;;;;;5088757;28;20040;-75
2021/12/29 10:38:16;;;;;;;4.78;2.17;;;;;;;;;;5088157;28;20070;-75
2021/12/29 10:40:42;;;;;;;;;;;;;;;;;;5090121;28;20119;-75
2021/12/29 10:43:08;;;;;;;5.43;2.40;;;;;;;;;;5089650;28;20437;-75
2021/12/29 10:45:35;;;;;;;6.90;2.45;;;;;;;;;;5087873;28;20382;-75
2021/12/29 10:48:02;;;;;;;6.93;2.28;;;;;;;;;;5088811;28;20516;-76
2021/12/29 10:50:29;;;;;;;5.63;2.35;;;;;;;;;;5089930;28;20513;-76
2021/12/29 10:52:58;;;;;;;5.97;2.35;;;;;;;;;;5089611;28;20969;-78
2021/12/29 10:55:31;;;;;;;6.45;2.90;;;;;;;;;;5089532;28;20044;-76
2021/12/29 10:58:09;;;;;;;6.45;2.67;;;;;;;;;;5087101;28;20067;-75
2021/12/29 11:00:37;;;;;;;7.00;2.80;;;;;;;;;;5076836;28;20154;-76
2021/12/29 11:03:08;;;;;;;6.13;2.47;;;;;;;;;;5089343;28;20043;-76
2021/12/29 11:05:38;;;;;;;6.57;2.75;;;;;;;;;;5088139;28;20050;-75
2021/12/29 11:08:05;;;;;;;7.07;3.10;;;;;;;;;;5089171;28;20044;-76
2021/12/29 11:10:31;;;;;;;6.10;2.70;;;;;;;;;;5087916;28;20051;-76
2021/12/29 11:12:57;;;;;;;5.70;2.63;;;;;;;;;;5088021;28;20159;-76
2021/12/29 11:15:25;;;;;;;8.73;2.95;;;;;;;;;;5087651;28;20106;-75
2021/12/29 11:17:52;;;;;;;4.72;2.17;;;;;;;;;;5089025;28;20398;-75
2021/12/29 11:20:19;;;;;;;5.35;2.40;;;;;;;;;;5089418;28;20040;-76
2021/12/29 11:22:45;;;;;;;9.40;3.05;;;;;;;;;;5087077;28;20486;-75
2021/12/29 11:25:11;;;;;;;5.30;2.53;;;;;;;;;;5088647;28;20044;-76
2021/12/29 11:27:38;;;;;;;7.25;2.90;;;;;;;;;;5088654;28;20046;-77
2021/12/29 11:30:12;;;;;;;6.78;2.85;;;;;;;;;;5088834;28;20502;-76
2021/12/29 11:32:39;;;;;;;4.95;2.45;;;;;;;;;;5086046;28;20093;-76
2021/12/29 11:35:12;;;;;;;6.25;2.78;;;;;;;;;;5088609;28;20126;-76
2021/12/29 11:37:40;;;;;;;7.07;2.85;;;;;;;;;;5091850;28;20059;-77
2021/12/29 11:40:08;;;;;;;6.18;2.70;;;;;;;;;;5092420;28;20059;-77
2021/12/29 11:42:34;;;;;;;5.53;2.80;;;;;;;;;;5078851;28;20460;-74
2021/12/29 11:45:00;;;;;;;6.55;2.60;;;;;;;;;;5090343;28;20048;-75
2021/12/29 11:47:27;;;;;;;5.75;2.92;;;;;;;;;;5090043;28;20555;-76
2021/12/29 11:49:53;;;;;;;5.93;2.60;;;;;;;;;;5075769;28;20059;-73
2021/12/29 11:52:25;;;;;;;7.82;3.08;;;;;;;;;;5069479;28;20052;-74
2021/12/29 11:55:02;;;;;;;4.22;2.55;;;;;;;;;;5086099;28;20447;-74
2021/12/29 11:57:30;;;;;;;7.38;3.17;;;;;;;;;;5088849;28;20040;-76
2021/12/29 12:00:17;;;;;;;8.50;2.83;;;;;;;;;;5074750;28;20056;-72
2021/12/29 12:02:44;;;;;;;5.47;2.75;;;;;;;;;;5068228;28;20102;-76
2021/12/29 12:05:18;;;;;;;5.97;2.70;;;;;;;;;;5070079;28;20045;-76
2021/12/29 12:07:44;;;;;;;5.45;2.67;;;;;;;;;;5067069;28;20076;-74
2021/12/29 12:10:14;;;;;;;6.60;3.10;;;;;;;;;;5069451;28;20128;-75
2021/12/29 12:12:46;;;;;;;5.68;3.00;;;;;;;;;;5069316;28;20048;-74
2021/12/29 12:15:13;;;;;;;6.50;2.75;;;;;;;;;;5068610;28;20132;-74
2021/12/29 12:17:40;;;;;;;4.95;2.40;;;;;;;;;;5067879;28;20037;-75
2021/12/29 12:20:08;;;;;;;6.10;2.78;;;;;;;;;;5068182;28;20051;-75
2021/12/29 12:22:51;;;;;;;3.88;2.38;;;;;;;;;;5069388;28;20040;-75
2021/12/29 12:25:25;;;;;;;5.15;2.50;;;;;;;;;;5069364;28;20048;-75
2021/12/29 12:27:56;;;;;;;5.70;2.75;;;;;;;;;;5068782;28;20053;-74
2021/12/29 12:30:23;;;;;;;6.57;2.50;;;;;;;;;;5066726;28;20051;-74
2021/12/29 12:32:57;;;;;;;5.72;2.85;;;;;;;;;;5068667;28;20040;-75
2021/12/29 12:35:30;;;;;;;7.93;2.63;;;;;;;;;;5069502;28;20079;-75
2021/12/29 12:37:57;;;;;;;4.93;2.45;;;;;;;;;;5067262;28;20122;-75
2021/12/29 12:40:27;;;;;;;4.20;2.45;;;;;;;;;;5068918;28;20134;-76
2021/12/29 12:42:59;;;;;;;5.00;2.17;;;;;;;;;;5068245;28;20041;-76
2021/12/29 12:45:26;;;;;;;6.53;2.50;;;;;;;;;;5067596;28;20056;-76
2021/12/29 12:48:01;;;;;;;5.90;2.42;;;;;;;;;;5067859;28;20414;-76
2021/12/29 12:50:28;;;;;;;6.00;2.20;;;;;;;;;;5068371;28;20040;-75
2021/12/29 12:52:55;;;;;;;6.88;2.60;;;;;;;;;;5068925;28;20044;-75
2021/12/29 12:55:22;;;;;;;4.57;2.50;;;;;;;;;;5050820;28;20045;-73
2021/12/29 12:57:50;;;;;;;5.13;2.30;;;;;;;;;;5067062;28;20816;-74
2021/12/29 13:00:19;;;;;;;5.03;2.53;;;;;;;;;;5061106;28;20055;-75
2021/12/29 13:02:51;;;;;;;4.93;2.30;;;;;;;;;;5092830;28;20459;-74
2021/12/29 13:05:22;;;;;;;5.50;2.30;;;;;;;;;;5092976;28;20409;-72
2021/12/29 13:07:59;;;;;;;5.00;2.28;;;;;;;;;;5091445;28;20040;-75
2021/12/29 13:10:26;;;;;;;5.80;2.33;;;;;;;;;;5092491;28;20043;-73
2021/12/29 13:12:58;;;;;;;5.93;2.20;;;;;;;;;;5092781;28;20055;-75
2021/12/29 13:15:24;;;;;;;6.60;2.47;;;;;;;;;;5089575;28;20042;-73
2021/12/29 13:17:50;;;;;;;3.90;2.20;;;;;;;;;;5083950;28;20044;-76
2021/12/29 13:20:17;;;;;;;5.13;2.03;;;;;;;;;;5092608;28;20051;-74
2021/12/29 13:22:43;;;;;;;4.78;2.22;;;;;;;;;;5092468;28;20047;-74
2021/12/29 13:25:12;;;;;;;7.63;2.95;;;;;;;;;;5092384;28;20052;-73
2021/12/29 13:27:39;;;;;;;5.15;2.45;;;;;;;;;;5091850;28;20222;-73
2021/12/29 13:30:06;;;;;;;4.45;2.20;;;;;;;;;;5091255;28;20063;-74
2021/12/29 13:32:32;;;;;;;4.22;2.13;;;;;;;;;;5093239;28;20501;-73
2021/12/29 13:34:59;;;;;;;7.05;2.20;;;;;;;;;;5092274;28;20036;-74
2021/12/29 13:37:25;;;;;;;6.95;2.40;;;;;;;;;;5092930;28;20087;-75
2021/12/29 13:39:52;;;;;;;8.48;2.15;;;;;;;;;;5092950;28;20075;-73
2021/12/29 13:42:18;;;;;;;6.15;2.33;;;;;;;;;;5092861;28;20044;-74
2021/12/29 13:44:44;;;;;;;9.98;2.50;;;;;;;;;;5091965;28;20040;-74
2021/12/29 13:47:10;;;;;;;4.60;2.33;;;;;;;;;;5092817;28;20040;-74
2021/12/29 13:49:37;;;;;;;5.93;2.08;;;;;;;;;;5092629;28;20134;-74
2021/12/29 13:52:03;;;;;;;3.85;1.88;;;;;;;;;;5092797;28;20048;-73
2021/12/29 13:54:30;;;;;;;4.60;1.83;;;;;;;;;;5092947;28;20040;-73
2021/12/29 13:56:56;;;;;;;6.10;2.35;;;;;;;;;;5091160;28;20073;-73
2021/12/29 13:59:24;;;;;;;5.65;2.00;;;;;;;;;;5092604;28;20086;-73
2021/12/29 14:01:51;;;;;;;6.10;2.55;;;;;;;;;;5092513;28;20043;-73
2021/12/29 14:04:27;;;;;;;5.50;2.40;;;;;;;;;;5074500;28;20135;-74
2021/12/29 14:06:55;;;;;;;4.72;2.05;;;;;;;;;;5092462;28;20059;-74
2021/12/29 14:09:22;;;;;;;5.80;2.45;;;;;;;;;;5090506;28;20068;-74
2021/12/29 14:11:48;;;;;;;4.55;1.90;;;;;;;;;;5091801;28;20082;-75
2021/12/29 14:14:14;;;;;;;5.03;2.20;;;;;;;;;;5092492;28;20044;-75
2021/12/29 14:16:53;;;;;;;7.38;2.20;;;;;;;;;;5092375;28;20079;-75
2021/12/29 14:19:24;;;;;;;4.60;2.00;;;;;;;;;;5091215;28;20074;-74
2021/12/29 14:21:50;;;;;;;4.28;1.90;;;;;;;;;;5091334;28;20476;-75
2021/12/29 14:24:18;;;;;;;5.18;1.92;;;;;;;;;;5092109;28;20036;-74
2021/12/29 14:26:48;;;;;;;4.57;2.15;;;;;;;;;;5092104;28;20055;-75
2021/12/29 14:29:19;;;;;;;5.30;2.00;;;;;;;;;;5091960;28;20083;-75
2021/12/29 14:31:52;;;;;;;5.55;2.22;;;;;;;;;;5091645;28;20502;-74
2021/12/29 14:34:19;;;;;;;5.90;1.95;;;;;;;;;;5091430;28;20047;-74
2021/12/29 14:36:50;;;;;;;3.60;1.90;;;;;;;;;;5091630;28;20092;-74
2021/12/29 14:39:23;;;;;;;3.38;1.80;;;;;;;;;;5091768;28;20049;-74
2021/12/29 14:42:09;;;;;;;2.97;1.55;;;;;;;;;;5091470;28;20041;-73
2021/12/29 14:44:47;;;;;;;5.30;2.28;;;;;;;;;;5089941;28;20048;-74
2021/12/29 14:47:14;;;;;;;3.53;2.10;;;;;;;;;;5091505;28;20437;-74